createdAt,value
2023-05-16T00:00:35.390Z,10.42
2023-05-16T00:03:03.557Z,10.47
2023-05-16T00:05:31.260Z,10.52
2023-05-16T00:07:58.721Z,10.53
2023-05-16T00:10:26.390Z,10.54
2023-05-16T00:12:54.087Z,10.58
2023-05-16T00:15:21.751Z,10.65
2023-05-16T00:17:50.505Z,10.72
2023-05-16T00:20:19.052Z,10.76
2023-05-16T00:22:46.430Z,10.68
2023-05-16T00:25:13.913Z,10.53
2023-05-16T00:27:41.288Z,10.37
2023-05-16T00:30:10.764Z,10.28
2023-05-16T00:32:38.289Z,10.26
2023-05-16T00:35:10.754Z,10.23
2023-05-16T00:37:38.710Z,10.15
2023-05-16T00:40:07.751Z,10.03
2023-05-16T00:42:36.772Z,9.90
2023-05-16T00:45:06.473Z,9.79
2023-05-16T00:47:34.232Z,9.81
2023-05-16T00:50:01.626Z,9.89
2023-05-16T00:52:36.256Z,9.93
2023-05-16T00:55:05.858Z,10.00
2023-05-16T00:57:35.850Z,10.02
2023-05-16T01:00:05.766Z,9.92
2023-05-16T01:02:35.713Z,9.77
2023-05-16T01:05:05.538Z,9.73
2023-05-16T01:07:35.657Z,9.70
2023-05-16T01:10:04.015Z,9.69
2023-05-16T01:12:42.343Z,9.73
2023-05-16T01:15:13.499Z,9.71
2023-05-16T01:17:53.627Z,9.54
2023-05-16T01:20:33.839Z,9.48
2023-05-16T01:23:17.878Z,9.44
2023-05-16T01:25:58.377Z,9.38
2023-05-16T01:28:28.636Z,9.25
2023-05-16T01:30:56.219Z,8.92
2023-05-16T01:33:25.321Z,8.68
2023-05-16T01:36:00.452Z,8.58
2023-05-16T01:38:33.682Z,8.58
2023-05-16T01:41:05.068Z,8.60
2023-05-16T01:43:37.486Z,8.58
2023-05-16T01:46:12.049Z,8.67
2023-05-16T01:48:49.179Z,8.76
2023-05-16T01:51:17.196Z,8.89
2023-05-16T01:53:45.584Z,9.02
2023-05-16T01:56:16.861Z,9.16
2023-05-16T01:58:48.486Z,9.25
2023-05-16T02:01:15.928Z,9.35
2023-05-16T02:03:43.346Z,9.41
2023-05-16T02:06:10.871Z,9.45
2023-05-16T02:08:38.337Z,9.51
2023-05-16T02:11:05.708Z,9.56
2023-05-16T02:13:33.199Z,9.62
2023-05-16T02:16:06.921Z,9.65
2023-05-16T02:18:36.262Z,9.65
2023-05-16T02:21:06.336Z,9.65
2023-05-16T02:23:33.945Z,9.68
2023-05-16T02:26:01.475Z,9.71
2023-05-16T02:28:29.040Z,9.73
2023-05-16T02:30:57.714Z,9.73
2023-05-16T02:33:27.727Z,9.75
2023-05-16T02:35:55.724Z,9.79
2023-05-16T02:38:22.962Z,9.84
2023-05-16T02:40:50.891Z,9.89
2023-05-16T02:43:18.398Z,9.93
2023-05-16T02:45:45.942Z,9.94
2023-05-16T02:48:13.302Z,10.05
2023-05-16T02:50:43.384Z,10.10
2023-05-16T02:53:10.877Z,10.18
2023-05-16T02:55:38.581Z,10.18
2023-05-16T02:58:06.446Z,10.19
2023-05-16T03:00:34.133Z,10.24
2023-05-16T03:03:01.761Z,10.31
2023-05-16T03:05:29.815Z,10.36
2023-05-16T03:07:58.532Z,10.39
2023-05-16T03:10:26.601Z,10.47
2023-05-16T03:12:53.890Z,10.53
2023-05-16T03:15:22.591Z,10.63
2023-05-16T03:17:50.033Z,10.71
2023-05-16T03:20:17.406Z,10.83
2023-05-16T03:22:45.389Z,10.98
2023-05-16T03:25:14.301Z,11.12
2023-05-16T03:27:42.372Z,11.24
2023-05-16T03:30:10.210Z,11.42
2023-05-16T03:32:38.826Z,11.55
2023-05-16T03:35:07.029Z,11.69
2023-05-16T03:37:34.839Z,11.82
2023-05-16T03:40:02.251Z,11.93
2023-05-16T03:42:32.815Z,12.06
2023-05-16T03:45:00.130Z,12.20
2023-05-16T03:47:30.691Z,12.32
2023-05-16T03:49:58.380Z,12.44
2023-05-16T03:52:25.888Z,12.54
2023-05-16T03:54:53.104Z,12.67
2023-05-16T03:57:20.544Z,12.79
2023-05-16T03:59:49.429Z,12.90
2023-05-16T04:02:18.923Z,12.97
2023-05-16T04:04:46.757Z,13.06
2023-05-16T04:07:14.013Z,13.11
2023-05-16T04:09:41.637Z,13.17
2023-05-16T04:12:09.096Z,13.17
2023-05-16T04:14:36.769Z,13.20
2023-05-16T04:17:06.011Z,13.26
2023-05-16T04:19:33.554Z,13.32
2023-05-16T04:22:00.894Z,13.30
2023-05-16T04:24:29.145Z,13.36
2023-05-16T04:26:56.882Z,13.42
2023-05-16T04:29:24.129Z,13.47
2023-05-16T04:31:51.856Z,13.53
2023-05-16T04:34:20.815Z,13.63
2023-05-16T04:36:48.078Z,13.73
2023-05-16T04:39:15.385Z,13.84
2023-05-16T04:41:42.759Z,13.90
2023-05-16T04:44:11.326Z,13.96
2023-05-16T04:46:38.847Z,14.02
2023-05-16T04:49:06.383Z,14.09
2023-05-16T04:51:35.677Z,14.17
2023-05-16T04:54:03.058Z,14.18
2023-05-16T04:56:30.455Z,14.24
2023-05-16T04:58:57.855Z,14.35
2023-05-16T05:01:25.475Z,14.47
2023-05-16T05:03:53.008Z,14.58
2023-05-16T05:06:20.576Z,14.73
2023-05-16T05:08:49.616Z,14.86
2023-05-16T05:11:17.581Z,14.98
2023-05-16T05:13:45.087Z,15.01
2023-05-16T05:16:13.698Z,15.07
2023-05-16T05:18:41.107Z,15.08
2023-05-16T05:21:08.469Z,15.08
2023-05-16T05:23:35.903Z,15.14
2023-05-16T05:26:05.271Z,15.16
2023-05-16T05:28:32.661Z,15.17
2023-05-16T05:31:00.026Z,15.17
2023-05-16T05:33:29.601Z,15.22
2023-05-16T05:35:57.759Z,15.29
2023-05-16T05:38:25.063Z,15.38
2023-05-16T05:40:52.581Z,15.38
2023-05-16T05:43:21.420Z,15.37
2023-05-16T05:45:48.982Z,15.43
2023-05-16T05:48:16.507Z,15.54
2023-05-16T05:50:43.985Z,15.67
2023-05-16T05:53:11.366Z,15.81
2023-05-16T05:55:41.863Z,15.93
2023-05-16T05:58:09.655Z,15.97
2023-05-16T06:00:38.589Z,16.01
2023-05-16T06:03:06.190Z,15.95
2023-05-16T06:05:33.680Z,15.91
2023-05-16T06:08:01.131Z,15.99
2023-05-16T06:10:28.929Z,16.08
2023-05-16T06:12:56.706Z,16.30
2023-05-16T06:15:25.361Z,16.56
2023-05-16T06:17:54.234Z,16.91
2023-05-16T06:20:21.664Z,17.37
2023-05-16T06:22:49.209Z,17.79
2023-05-16T06:25:16.714Z,18.09
2023-05-16T06:27:44.057Z,18.28
2023-05-16T06:30:12.032Z,18.33
2023-05-16T06:32:41.085Z,18.23
2023-05-16T06:35:10.331Z,18.35
2023-05-16T06:37:37.717Z,18.58
2023-05-16T06:40:06.280Z,18.87
2023-05-16T06:42:34.010Z,19.00
2023-05-16T06:45:01.636Z,19.27
2023-05-16T06:47:34.350Z,19.37
2023-05-16T06:50:01.840Z,19.23
2023-05-16T06:52:33.788Z,19.44
2023-05-16T06:55:01.293Z,19.76
2023-05-16T06:57:29.473Z,19.81
2023-05-16T06:59:56.912Z,19.79
2023-05-16T07:02:24.563Z,20.00
2023-05-16T07:04:52.294Z,20.04
2023-05-16T07:07:19.796Z,19.83
2023-05-16T07:09:48.667Z,19.61
2023-05-16T07:12:16.259Z,19.36
2023-05-16T07:14:43.865Z,19.45
2023-05-16T07:17:11.955Z,19.57
2023-05-16T07:19:39.597Z,19.74
2023-05-16T07:22:07.144Z,19.78
2023-05-16T07:24:34.732Z,19.78
2023-05-16T07:27:03.930Z,19.70
2023-05-16T07:29:31.423Z,19.66
2023-05-16T07:31:59.593Z,19.74
2023-05-16T07:34:27.296Z,19.82
2023-05-16T07:36:54.800Z,19.68
2023-05-16T07:39:22.369Z,19.42
2023-05-16T07:41:49.893Z,19.44
2023-05-16T07:44:18.650Z,19.42
2023-05-16T07:46:46.063Z,19.32
2023-05-16T07:49:13.628Z,19.24
2023-05-16T07:51:41.256Z,19.36
2023-05-16T07:54:08.856Z,19.35
2023-05-16T07:56:36.256Z,19.37
2023-05-16T07:59:06.022Z,19.23
2023-05-16T08:01:34.834Z,19.26
2023-05-16T08:04:02.308Z,19.40
2023-05-16T08:06:30.002Z,19.45
2023-05-16T08:08:57.640Z,19.61
2023-05-16T08:11:25.264Z,19.65
2023-05-16T08:13:53.015Z,19.64
2023-05-16T08:16:20.680Z,19.63
2023-05-16T08:18:49.611Z,19.60
2023-05-16T08:21:17.175Z,19.54
2023-05-16T08:23:44.585Z,19.50
2023-05-16T08:26:12.018Z,19.43
2023-05-16T08:28:39.573Z,19.41
2023-05-16T08:31:07.189Z,19.52
2023-05-16T08:33:34.597Z,19.57
2023-05-16T08:36:03.830Z,19.65
2023-05-16T08:38:31.224Z,19.88
2023-05-16T08:40:58.767Z,20.04
2023-05-16T08:43:26.229Z,20.07
2023-05-16T08:45:53.527Z,20.12
2023-05-16T08:48:23.934Z,20.09
2023-05-16T08:50:51.859Z,20.04
2023-05-16T08:53:23.136Z,20.05
2023-05-16T08:55:51.840Z,19.99
2023-05-16T08:58:19.784Z,19.94
2023-05-16T09:00:47.996Z,19.89
2023-05-16T09:03:16.191Z,19.87
2023-05-16T09:05:43.715Z,19.92
2023-05-16T09:08:31.201Z,20.04
2023-05-16T09:10:58.823Z,20.07
2023-05-16T09:13:26.617Z,20.19
2023-05-16T09:16:09.571Z,20.48
2023-05-16T09:18:37.999Z,20.66
2023-05-16T09:21:05.570Z,20.71
2023-05-16T09:23:36.503Z,20.71
2023-05-16T09:26:08.257Z,20.60
2023-05-16T09:28:38.888Z,20.73
2023-05-16T09:31:20.779Z,20.77
2023-05-16T09:33:49.575Z,20.74
2023-05-16T09:36:16.972Z,20.75
2023-05-16T09:38:45.961Z,20.80
2023-05-16T09:41:13.562Z,20.83
2023-05-16T09:43:43.184Z,20.79
2023-05-16T09:46:14.638Z,20.78
2023-05-16T09:48:44.971Z,20.82
2023-05-16T09:51:13.276Z,20.84
2023-05-16T09:53:42.058Z,20.81
2023-05-16T09:56:13.699Z,20.51
2023-05-16T09:58:42.833Z,20.48
2023-05-16T10:01:11.214Z,20.55
2023-05-16T10:03:40.993Z,20.71
2023-05-16T10:06:09.290Z,20.89
2023-05-16T10:08:37.685Z,21.11
2023-05-16T10:11:06.755Z,21.17
2023-05-16T10:13:36.887Z,21.07
2023-05-16T10:16:08.605Z,20.89
2023-05-16T10:18:37.040Z,20.88
2023-05-16T10:21:08.931Z,20.80
2023-05-16T10:23:41.382Z,20.69
2023-05-16T10:26:09.637Z,20.75
2023-05-16T10:28:39.118Z,20.86
2023-05-16T10:31:08.121Z,20.74
2023-05-16T10:33:36.756Z,20.72
2023-05-16T10:36:05.773Z,20.76
2023-05-16T10:38:34.919Z,20.83
2023-05-16T10:41:02.808Z,20.95
2023-05-16T10:43:31.177Z,21.10
2023-05-16T10:46:04.121Z,21.03
2023-05-16T10:48:32.983Z,20.97
2023-05-16T10:51:00.728Z,20.93
2023-05-16T10:53:33.050Z,20.72
2023-05-16T10:56:11.592Z,20.61
2023-05-16T10:58:47.225Z,20.53
2023-05-16T11:01:24.493Z,20.63
2023-05-16T11:04:10.409Z,20.84
2023-05-16T11:06:52.555Z,21.16
2023-05-16T11:09:23.525Z,21.32
2023-05-16T11:12:03.010Z,21.43
2023-05-16T11:14:37.691Z,21.12
2023-05-16T11:17:10.817Z,20.99
2023-05-16T11:19:43.683Z,21.03
2023-05-16T11:22:23.210Z,21.25
2023-05-16T11:24:56.659Z,21.44
2023-05-16T11:27:27.149Z,21.65
2023-05-16T11:29:56.410Z,21.77
2023-05-16T11:32:25.310Z,21.77
2023-05-16T11:34:53.496Z,21.92
2023-05-16T11:37:21.447Z,22.12
2023-05-16T11:39:49.129Z,22.04
2023-05-16T11:42:16.811Z,22.06
2023-05-16T11:44:44.715Z,21.93
2023-05-16T11:47:12.907Z,21.58
2023-05-16T11:49:41.892Z,21.59
2023-05-16T11:52:09.799Z,21.70
2023-05-16T11:54:38.560Z,21.89
2023-05-16T11:57:06.466Z,22.05
2023-05-16T11:59:33.949Z,22.12
2023-05-16T12:02:05.266Z,22.40
2023-05-16T12:04:32.934Z,22.45
2023-05-16T12:07:02.415Z,22.59
2023-05-16T12:09:30.292Z,22.65
2023-05-16T12:11:57.927Z,22.62
2023-05-16T12:14:26.284Z,22.57
2023-05-16T12:16:54.423Z,22.53
2023-05-16T12:19:22.236Z,22.63
2023-05-16T12:21:53.574Z,22.84
2023-05-16T12:24:22.614Z,23.08
2023-05-16T12:26:53.702Z,23.13
2023-05-16T12:29:22.085Z,22.73
2023-05-16T12:31:53.473Z,22.82
2023-05-16T12:34:21.991Z,23.00
2023-05-16T12:36:53.233Z,23.24
2023-05-16T12:39:23.334Z,23.21
2023-05-16T12:41:50.705Z,22.95
2023-05-16T12:44:19.906Z,23.00
2023-05-16T12:46:50.341Z,23.35
2023-05-16T12:49:20.603Z,23.73
2023-05-16T12:51:52.948Z,24.21
2023-05-16T12:54:23.032Z,24.34
2023-05-16T12:56:52.036Z,24.25
2023-05-16T12:59:20.460Z,23.66
2023-05-16T13:01:49.294Z,23.53
2023-05-16T13:04:19.556Z,23.72
2023-05-16T13:06:57.373Z,24.03
2023-05-16T13:09:31.090Z,24.29
2023-05-16T13:12:01.696Z,24.41
2023-05-16T13:14:29.360Z,24.37
2023-05-16T13:16:56.783Z,24.50
2023-05-16T13:19:24.591Z,24.58
2023-05-16T13:21:52.238Z,24.82
2023-05-16T13:24:19.676Z,24.96
2023-05-16T13:26:47.097Z,24.93
2023-05-16T13:29:16.258Z,24.64
2023-05-16T13:31:43.797Z,24.41
2023-05-16T13:34:11.238Z,24.33
2023-05-16T13:36:53.177Z,24.20
2023-05-16T13:39:22.741Z,23.84
2023-05-16T13:41:50.450Z,23.79
2023-05-16T13:44:19.640Z,23.84
2023-05-16T13:46:47.230Z,23.73
2023-05-16T13:49:15.083Z,23.68
2023-05-16T13:51:42.335Z,23.47
2023-05-16T13:54:09.723Z,23.47
2023-05-16T13:56:38.530Z,23.60
2023-05-16T13:59:07.159Z,23.42
2023-05-16T14:01:37.106Z,23.71
2023-05-16T14:04:04.907Z,23.58
2023-05-16T14:06:32.293Z,23.29
2023-05-16T14:09:00.038Z,22.99
2023-05-16T14:11:29.086Z,23.12
2023-05-16T14:13:57.902Z,23.42
2023-05-16T14:16:25.468Z,23.56
2023-05-16T14:18:54.335Z,23.75
2023-05-16T14:21:21.848Z,23.52
2023-05-16T14:23:49.263Z,23.31
2023-05-16T14:26:18.207Z,23.34
2023-05-16T14:28:45.804Z,23.42
2023-05-16T14:31:13.325Z,23.27
2023-05-16T14:33:41.286Z,23.32
2023-05-16T14:36:10.658Z,23.06
2023-05-16T14:38:38.050Z,22.97
2023-05-16T14:41:05.714Z,23.05
2023-05-16T14:43:33.140Z,23.19
2023-05-16T14:46:00.967Z,23.09
2023-05-16T14:48:28.583Z,22.79
2023-05-16T14:50:55.953Z,22.54
2023-05-16T14:53:24.643Z,22.55
2023-05-16T14:55:52.140Z,22.56
2023-05-16T14:58:19.543Z,22.60
2023-05-16T15:00:46.910Z,22.25
2023-05-16T15:03:15.899Z,22.15
2023-05-16T15:05:43.714Z,22.26
2023-05-16T15:08:11.091Z,21.98
2023-05-16T15:10:40.022Z,21.77
2023-05-16T15:13:07.449Z,21.84
2023-05-16T15:15:35.053Z,21.69
2023-05-16T15:18:02.758Z,21.65
2023-05-16T15:20:30.630Z,21.58
2023-05-16T15:22:58.226Z,21.45
2023-05-16T15:25:26.008Z,21.53
2023-05-16T15:27:55.345Z,21.63
2023-05-16T15:30:22.735Z,21.56
2023-05-16T15:32:50.294Z,21.37
2023-05-16T15:35:18.260Z,21.12
2023-05-16T15:37:45.846Z,21.05
2023-05-16T15:40:14.776Z,20.84
2023-05-16T15:42:44.396Z,20.55
2023-05-16T15:45:13.550Z,20.35
2023-05-16T15:47:42.064Z,20.20
2023-05-16T15:50:10.592Z,20.02
2023-05-16T15:52:37.916Z,19.84
2023-05-16T15:55:06.589Z,19.77
2023-05-16T15:57:34.168Z,19.75
2023-05-16T16:00:01.588Z,19.71
2023-05-16T16:02:33.994Z,19.69
2023-05-16T16:05:01.889Z,19.59
2023-05-16T16:07:29.559Z,19.49
2023-05-16T16:09:59.687Z,19.41
2023-05-16T16:12:29.702Z,19.38
2023-05-16T16:14:57.124Z,19.37
2023-05-16T16:17:24.523Z,19.33
2023-05-16T16:19:53.545Z,19.30
2023-05-16T16:22:22.361Z,19.31
2023-05-16T16:24:50.490Z,19.30
2023-05-16T16:27:17.940Z,19.24
2023-05-16T16:29:45.286Z,19.22
2023-05-16T16:32:12.794Z,19.16
2023-05-16T16:34:40.177Z,19.13
2023-05-16T16:37:10.206Z,19.08
2023-05-16T16:39:38.615Z,19.03
2023-05-16T16:42:06.978Z,19.01
2023-05-16T16:44:34.495Z,18.99
2023-05-16T16:47:02.317Z,18.94
2023-05-16T16:49:31.509Z,18.90
2023-05-16T16:51:59.027Z,18.86
2023-05-16T16:54:28.295Z,18.83
2023-05-16T16:56:56.482Z,18.74
2023-05-16T16:59:24.073Z,18.70
2023-05-16T17:01:51.690Z,18.69
2023-05-16T17:04:19.203Z,18.68
2023-05-16T17:06:48.579Z,18.63
2023-05-16T17:09:17.988Z,18.59
2023-05-16T17:11:46.958Z,18.50
2023-05-16T17:14:15.271Z,18.44
2023-05-16T17:16:43.115Z,18.37
2023-05-16T17:19:11.318Z,18.33
2023-05-16T17:21:40.854Z,18.31
2023-05-16T17:24:08.648Z,18.25
2023-05-16T17:26:36.310Z,18.23
2023-05-16T17:29:06.092Z,18.16
2023-05-16T17:31:33.648Z,18.10
2023-05-16T17:34:03.839Z,18.02
2023-05-16T17:36:31.280Z,17.94
2023-05-16T17:38:59.477Z,17.88
2023-05-16T17:41:27.200Z,17.83
2023-05-16T17:43:54.659Z,17.78
2023-05-16T17:46:23.352Z,17.72
2023-05-16T17:48:50.982Z,17.72
2023-05-16T17:51:18.559Z,17.68
2023-05-16T17:53:45.953Z,17.65
2023-05-16T17:56:14.143Z,17.65
2023-05-16T17:58:42.702Z,17.61
2023-05-16T18:01:10.403Z,17.54
2023-05-16T18:03:41.402Z,17.50
2023-05-16T18:06:09.368Z,17.46
2023-05-16T18:08:36.927Z,17.35
2023-05-16T18:11:04.255Z,17.32
2023-05-16T18:13:31.680Z,17.30
2023-05-16T18:15:59.003Z,17.26
2023-05-16T18:18:27.290Z,17.21
2023-05-16T18:20:56.243Z,17.20
2023-05-16T18:23:24.876Z,17.18
2023-05-16T18:25:52.266Z,17.12
2023-05-16T18:28:19.786Z,17.07
2023-05-16T18:30:47.242Z,17.04
2023-05-16T18:33:14.725Z,17.01
2023-05-16T18:35:42.226Z,16.98
2023-05-16T18:38:20.328Z,17.00
2023-05-16T18:40:56.124Z,16.93
2023-05-16T18:43:23.793Z,16.86
2023-05-16T18:45:51.254Z,16.79
2023-05-16T18:48:19.186Z,16.72
2023-05-16T18:50:46.916Z,16.67
2023-05-16T18:53:15.689Z,16.59
2023-05-16T18:55:43.008Z,16.61
2023-05-16T18:58:11.439Z,16.61
2023-05-16T19:00:38.823Z,16.59
2023-05-16T19:03:06.224Z,16.55
2023-05-16T19:05:34.550Z,16.53
2023-05-16T19:08:02.396Z,16.46
2023-05-16T19:10:32.667Z,16.43
2023-05-16T19:13:07.161Z,16.41
2023-05-16T19:15:35.109Z,16.42
2023-05-16T19:18:02.885Z,16.37
2023-05-16T19:20:30.688Z,16.27
2023-05-16T19:22:58.242Z,16.19
2023-05-16T19:25:26.540Z,16.14
2023-05-16T19:27:55.467Z,16.09
2023-05-16T19:30:23.976Z,16.06
2023-05-16T19:32:51.844Z,16.05
2023-05-16T19:35:19.709Z,16.01
2023-05-16T19:37:47.597Z,15.99
2023-05-16T19:40:17.100Z,15.94
2023-05-16T19:42:44.957Z,15.86
2023-05-16T19:45:13.953Z,15.80
2023-05-16T19:47:41.670Z,15.79
2023-05-16T19:50:10.125Z,15.77
2023-05-16T19:52:37.616Z,15.77
2023-05-16T19:55:08.583Z,15.75
2023-05-16T19:57:36.100Z,15.72
2023-05-16T20:00:05.425Z,15.64
2023-05-16T20:02:43.406Z,15.58
2023-05-16T20:05:11.172Z,15.51
2023-05-16T20:07:40.496Z,15.49
2023-05-16T20:10:09.237Z,15.43
2023-05-16T20:12:37.110Z,15.41
2023-05-16T20:15:08.304Z,15.37
2023-05-16T20:17:38.825Z,15.36
2023-05-16T20:20:09.252Z,15.32
2023-05-16T20:22:39.029Z,15.32
2023-05-16T20:25:07.641Z,15.35
2023-05-16T20:27:35.528Z,15.38
2023-05-16T20:30:04.356Z,15.42
2023-05-16T20:32:32.021Z,15.44
2023-05-16T20:34:59.475Z,15.42
2023-05-16T20:37:28.415Z,15.41
2023-05-16T20:39:55.926Z,15.39
2023-05-16T20:42:41.622Z,15.37
2023-05-16T20:45:09.806Z,15.34
2023-05-16T20:47:37.491Z,15.34
2023-05-16T20:50:06.143Z,15.34
2023-05-16T20:52:36.024Z,15.31
2023-05-16T20:55:03.594Z,15.35
2023-05-16T20:57:34.225Z,15.38
2023-05-16T21:00:01.627Z,15.39
2023-05-16T21:02:37.378Z,15.40
2023-05-16T21:05:34.679Z,15.42
2023-05-16T21:07:54.806Z,15.43
2023-05-16T21:10:22.136Z,15.44
2023-05-16T21:12:50.415Z,15.45
2023-05-16T21:15:17.932Z,15.43
2023-05-16T21:17:45.480Z,15.40
2023-05-16T21:20:13.016Z,15.37
2023-05-16T21:22:41.011Z,15.28
2023-05-16T21:25:10.313Z,15.24
2023-05-16T21:27:37.899Z,15.17
2023-05-16T21:30:05.837Z,15.07
2023-05-16T21:32:34.084Z,15.01
2023-05-16T21:35:01.524Z,14.96
2023-05-16T21:37:31.109Z,14.89
2023-05-16T21:39:58.463Z,14.86
2023-05-16T21:42:27.218Z,14.85
2023-05-16T21:44:54.721Z,14.80
2023-05-16T21:47:22.339Z,14.73
2023-05-16T21:49:49.957Z,14.73
2023-05-16T21:52:17.679Z,14.66
2023-05-16T21:54:51.511Z,14.60
2023-05-16T21:57:19.869Z,14.54
2023-05-16T21:59:50.676Z,14.46
2023-05-16T22:02:22.942Z,14.37
2023-05-16T22:04:51.260Z,14.27
2023-05-16T22:07:18.988Z,14.15
2023-05-16T22:09:50.907Z,14.05
2023-05-16T22:12:18.210Z,14.00
2023-05-16T22:14:45.764Z,13.96
2023-05-16T22:17:14.891Z,13.94
2023-05-16T22:19:45.292Z,13.92
2023-05-16T22:22:12.921Z,13.95
2023-05-16T22:24:40.396Z,13.96
2023-05-16T22:27:08.086Z,13.95
2023-05-16T22:29:38.417Z,13.93
2023-05-16T22:32:07.567Z,13.92
2023-05-16T22:34:40.531Z,13.89
2023-05-16T22:37:08.907Z,13.86
2023-05-16T22:39:36.305Z,13.86
2023-05-16T22:42:03.952Z,13.86
2023-05-16T22:44:31.318Z,13.83
2023-05-16T22:46:58.709Z,13.82
2023-05-16T22:49:26.013Z,13.80
2023-05-16T22:51:54.712Z,13.78
2023-05-16T22:54:21.923Z,13.76
2023-05-16T22:56:49.262Z,13.71
2023-05-16T22:59:16.756Z,13.67
2023-05-16T23:01:44.068Z,13.63
2023-05-16T23:04:11.635Z,13.63
2023-05-16T23:06:39.070Z,13.60
2023-05-16T23:09:07.724Z,13.56
2023-05-16T23:11:35.071Z,13.48
2023-05-16T23:14:02.448Z,13.43
2023-05-16T23:16:29.754Z,13.39
2023-05-16T23:18:57.059Z,13.34
2023-05-16T23:21:24.550Z,13.26
2023-05-16T23:23:52.015Z,13.23
2023-05-16T23:26:20.608Z,13.18
2023-05-16T23:28:47.954Z,13.15
2023-05-16T23:31:15.312Z,13.10
2023-05-16T23:33:42.548Z,13.04
2023-05-16T23:36:10.032Z,12.96
2023-05-16T23:38:37.288Z,12.90
2023-05-16T23:41:04.769Z,12.86
2023-05-16T23:43:33.532Z,12.85
2023-05-16T23:46:00.958Z,12.83
2023-05-16T23:48:28.468Z,12.84
2023-05-16T23:50:56.916Z,12.85
2023-05-16T23:53:29.083Z,12.86
2023-05-16T23:55:56.460Z,12.87
2023-05-16T23:58:23.780Z,12.81
